sensor_id;sensor_type;location;lat;lon;timestamp;pressure;altitude;pressure_sealevel;temperature;humidity
26978;BME280;56314;48.088;11.642;2022-09-03T00:01:49;95209.41;;;14.12;68.24
26978;BME280;56314;48.088;11.642;2022-09-03T00:04:56;95211.53;;;14.08;69.17
26978;BME280;56314;48.088;11.642;2022-09-03T00:07:45;95204.84;;;14.04;68.97
26978;BME280;56314;48.088;11.642;2022-09-03T00:13:14;95202.28;;;13.94;71.22
26978;BME280;56314;48.088;11.642;2022-09-03T00:15:41;95208.81;;;13.90;71.25
26978;BME280;56314;48.088;11.642;2022-09-03T00:18:14;95207.59;;;13.75;72.46
26978;BME280;56314;48.088;11.642;2022-09-03T00:23:20;95215.06;;;13.79;73.11
26978;BME280;56314;48.088;11.642;2022-09-03T00:28:46;95216.88;;;13.89;72.38
26978;BME280;56314;48.088;11.642;2022-09-03T00:31:37;95212.16;;;13.82;73.07
26978;BME280;56314;48.088;11.642;2022-09-03T00:34:10;95210.09;;;13.76;73.81
26978;BME280;56314;48.088;11.642;2022-09-03T00:36:44;95210.38;;;13.63;74.53
26978;BME280;56314;48.088;11.642;2022-09-03T00:39:18;95208.19;;;13.68;73.79
26978;BME280;56314;48.088;11.642;2022-09-03T00:45:11;95199.41;;;13.68;73.73
26978;BME280;56314;48.088;11.642;2022-09-03T00:52:45;95208.03;;;13.60;73.96
26978;BME280;56314;48.088;11.642;2022-09-03T00:57:56;95204.72;;;13.48;72.91
26978;BME280;56314;48.088;11.642;2022-09-03T01:00:28;95212.50;;;13.50;72.67
26978;BME280;56314;48.088;11.642;2022-09-03T01:03:05;95208.59;;;13.54;73.26
26978;BME280;56314;48.088;11.642;2022-09-03T01:05:40;95221.38;;;13.49;73.88
26978;BME280;56314;48.088;11.642;2022-09-03T01:08:19;95224.59;;;13.43;74.21
26978;BME280;56314;48.088;11.642;2022-09-03T01:13:40;95203.63;;;13.31;75.91
26978;BME280;56314;48.088;11.642;2022-09-03T01:35:58;95218.75;;;13.09;75.46
26978;BME280;56314;48.088;11.642;2022-09-03T01:47:41;95206.94;;;13.14;76.49
26978;BME280;56314;48.088;11.642;2022-09-03T01:53:02;95199.72;;;13.16;76.48
26978;BME280;56314;48.088;11.642;2022-09-03T01:55:40;95198.31;;;13.12;77.83
26978;BME280;56314;48.088;11.642;2022-09-03T01:58:15;95208.31;;;13.08;76.97
26978;BME280;56314;48.088;11.642;2022-09-03T02:00:49;95201.81;;;13.12;76.69
26978;BME280;56314;48.088;11.642;2022-09-03T02:03:17;95199.19;;;13.12;77.96
26978;BME280;56314;48.088;11.642;2022-09-03T02:05:43;95193.91;;;13.02;77.32
26978;BME280;56314;48.088;11.642;2022-09-03T02:08:10;95189.03;;;12.98;76.30
26978;BME280;56314;48.088;11.642;2022-09-03T02:10:54;95185.84;;;12.94;76.10
26978;BME280;56314;48.088;11.642;2022-09-03T02:13:30;95181.69;;;13.01;76.15
26978;BME280;56314;48.088;11.642;2022-09-03T02:16:22;95175.16;;;12.96;75.91
26978;BME280;56314;48.088;11.642;2022-09-03T02:18:50;95179.88;;;12.92;75.61
26978;BME280;56314;48.088;11.642;2022-09-03T02:21:20;95185.16;;;12.92;75.59
26978;BME280;56314;48.088;11.642;2022-09-03T02:23:47;95192.53;;;12.98;75.98
26978;BME280;56314;48.088;11.642;2022-09-03T02:26:15;95193.34;;;12.99;74.56
26978;BME280;56314;48.088;11.642;2022-09-03T02:28:43;95201.25;;;12.99;74.24
26978;BME280;56314;48.088;11.642;2022-09-03T02:31:08;95202.38;;;12.96;75.20
26978;BME280;56314;48.088;11.642;2022-09-03T02:33:37;95200.28;;;13.00;75.31
26978;BME280;56314;48.088;11.642;2022-09-03T02:36:05;95200.56;;;12.97;75.21
26978;BME280;56314;48.088;11.642;2022-09-03T02:38:31;95197.81;;;12.98;75.37
26978;BME280;56314;48.088;11.642;2022-09-03T02:40:57;95196.41;;;12.94;74.96
26978;BME280;56314;48.088;11.642;2022-09-03T02:43:48;95197.09;;;12.86;75.25
26978;BME280;56314;48.088;11.642;2022-09-03T02:46:20;95201.66;;;12.94;75.70
26978;BME280;56314;48.088;11.642;2022-09-03T02:48:46;95198.91;;;12.86;75.65
26978;BME280;56314;48.088;11.642;2022-09-03T02:51:12;95196.66;;;12.81;74.94
26978;BME280;56314;48.088;11.642;2022-09-03T02:53:37;95198.88;;;12.76;76.02
26978;BME280;56314;48.088;11.642;2022-09-03T02:56:03;95193.47;;;12.77;76.05
26978;BME280;56314;48.088;11.642;2022-09-03T02:58:29;95193.88;;;12.73;77.96
26978;BME280;56314;48.088;11.642;2022-09-03T03:00:56;95209.28;;;12.68;77.94
26978;BME280;56314;48.088;11.642;2022-09-03T03:03:22;95201.75;;;12.63;78.96
26978;BME280;56314;48.088;11.642;2022-09-03T03:05:50;95204.38;;;12.63;79.05
26978;BME280;56314;48.088;11.642;2022-09-03T03:08:18;95204.28;;;12.65;79.38
26978;BME280;56314;48.088;11.642;2022-09-03T03:10:48;95197.03;;;12.57;80.29
26978;BME280;56314;48.088;11.642;2022-09-03T03:13:16;95200.91;;;12.53;80.42
26978;BME280;56314;48.088;11.642;2022-09-03T03:15:42;95195.22;;;12.47;79.83
26978;BME280;56314;48.088;11.642;2022-09-03T03:18:08;95199.09;;;12.43;79.98
26978;BME280;56314;48.088;11.642;2022-09-03T03:20:37;95199.22;;;12.42;81.42
26978;BME280;56314;48.088;11.642;2022-09-03T03:23:03;95203.09;;;12.38;81.10
26978;BME280;56314;48.088;11.642;2022-09-03T03:25:38;95197.78;;;12.28;80.87
26978;BME280;56314;48.088;11.642;2022-09-03T03:28:04;95195.75;;;12.31;80.58
26978;BME280;56314;48.088;11.642;2022-09-03T03:30:30;95194.50;;;12.36;80.01
26978;BME280;56314;48.088;11.642;2022-09-03T03:32:56;95195.19;;;12.38;78.64
26978;BME280;56314;48.088;11.642;2022-09-03T03:35:21;95201.44;;;12.37;79.33
26978;BME280;56314;48.088;11.642;2022-09-03T03:37:47;95199.22;;;12.42;79.87
26978;BME280;56314;48.088;11.642;2022-09-03T03:40:13;95207.00;;;12.43;79.83
26978;BME280;56314;48.088;11.642;2022-09-03T03:42:39;95210.47;;;12.44;80.07
26978;BME280;56314;48.088;11.642;2022-09-03T03:45:05;95216.41;;;12.46;80.41
26978;BME280;56314;48.088;11.642;2022-09-03T03:47:32;95214.19;;;12.41;80.50
26978;BME280;56314;48.088;11.642;2022-09-03T03:49:58;95221.25;;;12.41;81.07
26978;BME280;56314;48.088;11.642;2022-09-03T03:52:24;95225.66;;;12.30;81.05
26978;BME280;56314;48.088;11.642;2022-09-03T03:54:50;95218.84;;;12.28;80.51
26978;BME280;56314;48.088;11.642;2022-09-03T03:57:17;95208.16;;;12.20;80.06
26978;BME280;56314;48.088;11.642;2022-09-03T03:59:44;95206.50;;;12.19;81.40
26978;BME280;56314;48.088;11.642;2022-09-03T04:02:09;95217.41;;;12.14;83.26
26978;BME280;56314;48.088;11.642;2022-09-03T04:04:35;95209.38;;;12.15;81.70
26978;BME280;56314;48.088;11.642;2022-09-03T04:07:00;95198.44;;;12.10;81.56
26978;BME280;56314;48.088;11.642;2022-09-03T04:09:26;95200.22;;;12.10;81.89
26978;BME280;56314;48.088;11.642;2022-09-03T04:11:51;95198.44;;;12.10;82.35
26978;BME280;56314;48.088;11.642;2022-09-03T04:14:16;95196.06;;;12.07;81.74
26978;BME280;56314;48.088;11.642;2022-09-03T04:16:42;95202.19;;;12.08;82.09
26978;BME280;56314;48.088;11.642;2022-09-03T04:19:11;95203.69;;;12.10;81.69
26978;BME280;56314;48.088;11.642;2022-09-03T04:21:37;95213.38;;;12.10;81.35
26978;BME280;56314;48.088;11.642;2022-09-03T04:24:03;95207.03;;;12.12;81.65
26978;BME280;56314;48.088;11.642;2022-09-03T04:26:31;95205.38;;;12.11;82.73
26978;BME280;56314;48.088;11.642;2022-09-03T04:29:07;95202.53;;;12.03;82.12
26978;BME280;56314;48.088;11.642;2022-09-03T04:31:33;95197.22;;;12.14;81.48
26978;BME280;56314;48.088;11.642;2022-09-03T04:33:59;95204.91;;;12.06;81.06
26978;BME280;56314;48.088;11.642;2022-09-03T04:36:26;95210.31;;;12.05;82.19
26978;BME280;56314;48.088;11.642;2022-09-03T04:38:53;95207.28;;;12.09;81.72
26978;BME280;56314;48.088;11.642;2022-09-03T04:41:21;95225.06;;;12.17;82.45
26978;BME280;56314;48.088;11.642;2022-09-03T04:43:50;95207.75;;;12.14;81.65
26978;BME280;56314;48.088;11.642;2022-09-03T04:46:15;95206.50;;;12.19;82.45
26978;BME280;56314;48.088;11.642;2022-09-03T04:48:41;95214.19;;;12.31;82.91
26978;BME280;56314;48.088;11.642;2022-09-03T04:51:11;95214.84;;;12.34;82.08
26978;BME280;56314;48.088;11.642;2022-09-03T04:53:42;95200.59;;;12.36;81.08
26978;BME280;56314;48.088;11.642;2022-09-03T04:56:16;95201.31;;;12.38;81.02
26978;BME280;56314;48.088;11.642;2022-09-03T04:58:43;95213.09;;;12.44;80.68
26978;BME280;56314;48.088;11.642;2022-09-03T05:01:15;95211.72;;;12.50;81.36
26978;BME280;56314;48.088;11.642;2022-09-03T05:03:41;95223.38;;;12.57;80.22
26978;BME280;56314;48.088;11.642;2022-09-03T05:06:07;95232.97;;;12.68;80.75
26978;BME280;56314;48.088;11.642;2022-09-03T05:08:33;95234.34;;;12.72;80.20
26978;BME280;56314;48.088;11.642;2022-09-03T05:11:01;95232.16;;;12.77;80.34
26978;BME280;56314;48.088;11.642;2022-09-03T05:13:27;95233.81;;;12.88;79.52
26978;BME280;56314;48.088;11.642;2022-09-03T05:15:57;95233.28;;;12.94;79.59
26978;BME280;56314;48.088;11.642;2022-09-03T05:18:23;95228.31;;;13.01;80.18
26978;BME280;56314;48.088;11.642;2022-09-03T05:20:57;95231.34;;;13.06;80.53
26978;BME280;56314;48.088;11.642;2022-09-03T05:23:22;95225.38;;;13.14;76.91
26978;BME280;56314;48.088;11.642;2022-09-03T05:26:01;95228.56;;;13.17;76.80
26978;BME280;56314;48.088;11.642;2022-09-03T05:28:29;95235.09;;;13.33;77.13
26978;BME280;56314;48.088;11.642;2022-09-03T05:31:14;95234.28;;;13.42;77.41
26978;BME280;56314;48.088;11.642;2022-09-03T05:33:46;95248.59;;;13.49;76.42
26978;BME280;56314;48.088;11.642;2022-09-03T05:36:14;95253.47;;;13.54;77.45
26978;BME280;56314;48.088;11.642;2022-09-03T05:38:40;95257.59;;;13.66;76.85
26978;BME280;56314;48.088;11.642;2022-09-03T05:41:08;95267.03;;;13.79;75.78
26978;BME280;56314;48.088;11.642;2022-09-03T05:43:34;95277.44;;;13.80;74.68
26978;BME280;56314;48.088;11.642;2022-09-03T05:46:02;95295.38;;;13.87;75.50
26978;BME280;56314;48.088;11.642;2022-09-03T05:48:28;95299.78;;;13.96;75.28
26978;BME280;56314;48.088;11.642;2022-09-03T05:51:15;95290.63;;;14.00;76.64
26978;BME280;56314;48.088;11.642;2022-09-03T05:53:45;95270.16;;;14.02;77.07
26978;BME280;56314;48.088;11.642;2022-09-03T05:56:13;95259.59;;;14.02;75.10
26978;BME280;56314;48.088;11.642;2022-09-03T05:58:43;95273.47;;;14.14;74.90
26978;BME280;56314;48.088;11.642;2022-09-03T06:01:21;95272.06;;;14.29;74.12
26978;BME280;56314;48.088;11.642;2022-09-03T06:03:58;95278.13;;;14.40;74.75
26978;BME280;56314;48.088;11.642;2022-09-03T06:06:25;95280.41;;;14.62;72.54
26978;BME280;56314;48.088;11.642;2022-09-03T06:08:55;95277.84;;;14.81;71.66
26978;BME280;56314;48.088;11.642;2022-09-03T06:11:23;95274.69;;;14.95;69.61
26978;BME280;56314;48.088;11.642;2022-09-03T06:13:53;95277.41;;;15.03;71.03
26978;BME280;56314;48.088;11.642;2022-09-03T06:16:19;95270.47;;;15.20;69.03
26978;BME280;56314;48.088;11.642;2022-09-03T06:18:46;95274.16;;;15.09;70.13
26978;BME280;56314;48.088;11.642;2022-09-03T06:21:11;95270.25;;;15.14;72.33
26978;BME280;56314;48.088;11.642;2022-09-03T06:23:39;95271.53;;;15.28;69.29
26978;BME280;56314;48.088;11.642;2022-09-03T06:28:32;95265.47;;;15.53;68.57
26978;BME280;56314;48.088;11.642;2022-09-03T06:31:02;95271.91;;;15.69;67.20
26978;BME280;56314;48.088;11.642;2022-09-03T06:33:28;95285.06;;;15.79;67.23
26978;BME280;56314;48.088;11.642;2022-09-03T06:35:58;95281.72;;;15.77;67.66
26978;BME280;56314;48.088;11.642;2022-09-03T06:38:31;95284.22;;;15.78;67.54
26978;BME280;56314;48.088;11.642;2022-09-03T06:40:58;95286.19;;;15.76;67.85
26978;BME280;56314;48.088;11.642;2022-09-03T06:43:29;95285.19;;;15.77;68.44
26978;BME280;56314;48.088;11.642;2022-09-03T06:46:00;95282.75;;;16.02;70.39
26978;BME280;56314;48.088;11.642;2022-09-03T06:48:27;95283.75;;;16.01;68.36
26978;BME280;56314;48.088;11.642;2022-09-03T06:51:04;95288.91;;;16.03;69.79
26978;BME280;56314;48.088;11.642;2022-09-03T06:53:35;95301.47;;;16.00;69.15
26978;BME280;56314;48.088;11.642;2022-09-03T06:56:06;95308.91;;;15.97;68.55
26978;BME280;56314;48.088;11.642;2022-09-03T06:58:37;95308.22;;;15.95;69.05
26978;BME280;56314;48.088;11.642;2022-09-03T07:01:06;95313.69;;;15.93;70.20
26978;BME280;56314;48.088;11.642;2022-09-03T07:03:32;95313.34;;;15.96;69.58
26978;BME280;56314;48.088;11.642;2022-09-03T07:06:02;95309.38;;;15.92;70.62
26978;BME280;56314;48.088;11.642;2022-09-03T07:08:29;95306.38;;;15.95;71.44
26978;BME280;56314;48.088;11.642;2022-09-03T07:11:07;95307.81;;;15.90;70.97
26978;BME280;56314;48.088;11.642;2022-09-03T07:13:38;95313.44;;;15.87;71.99
26978;BME280;56314;48.088;11.642;2022-09-03T07:16:10;95309.81;;;15.88;72.05
26978;BME280;56314;48.088;11.642;2022-09-03T07:18:37;95304.41;;;15.79;70.55
26978;BME280;56314;48.088;11.642;2022-09-03T07:21:06;95307.22;;;15.78;70.47
26978;BME280;56314;48.088;11.642;2022-09-03T07:23:32;95305.84;;;15.74;73.13
26978;BME280;56314;48.088;11.642;2022-09-03T07:26:00;95309.72;;;15.79;72.71
26978;BME280;56314;48.088;11.642;2022-09-03T07:28:26;95318.28;;;15.73;73.34
26978;BME280;56314;48.088;11.642;2022-09-03T07:30:52;95313.44;;;15.68;74.41
26978;BME280;56314;48.088;11.642;2022-09-03T07:33:18;95317.75;;;15.69;74.29
26978;BME280;56314;48.088;11.642;2022-09-03T07:35:45;95321.69;;;15.65;74.47
26978;BME280;56314;48.088;11.642;2022-09-03T07:38:10;95319.09;;;15.74;75.20
26978;BME280;56314;48.088;11.642;2022-09-03T07:40:36;95324.25;;;15.75;74.48
26978;BME280;56314;48.088;11.642;2022-09-03T07:43:04;95322.25;;;15.77;74.42
26978;BME280;56314;48.088;11.642;2022-09-03T07:45:30;95326.28;;;15.81;76.21
26978;BME280;56314;48.088;11.642;2022-09-03T07:47:57;95330.88;;;15.79;76.66
26978;BME280;56314;48.088;11.642;2022-09-03T07:50:22;95320.28;;;15.79;76.70
26978;BME280;56314;48.088;11.642;2022-09-03T07:52:48;95322.94;;;15.79;77.82
26978;BME280;56314;48.088;11.642;2022-09-03T07:55:14;95321.16;;;15.80;77.89
26978;BME280;56314;48.088;11.642;2022-09-03T07:57:39;95316.38;;;15.83;78.01
26978;BME280;56314;48.088;11.642;2022-09-03T08:00:06;95313.81;;;15.92;80.11
26978;BME280;56314;48.088;11.642;2022-09-03T08:02:35;95319.09;;;15.92;79.93
26978;BME280;56314;48.088;11.642;2022-09-03T08:05:00;95323.25;;;15.94;79.94
26978;BME280;56314;48.088;11.642;2022-09-03T08:07:28;95320.16;;;15.99;79.31
26978;BME280;56314;48.088;11.642;2022-09-03T08:09:54;95322.66;;;16.00;78.95
26978;BME280;56314;48.088;11.642;2022-09-03T08:12:19;95323.34;;;16.03;81.47
26978;BME280;56314;48.088;11.642;2022-09-03T08:14:45;95320.53;;;16.04;80.08
26978;BME280;56314;48.088;11.642;2022-09-03T08:17:10;95324.59;;;16.16;79.15
26978;BME280;56314;48.088;11.642;2022-09-03T08:19:36;95327.81;;;16.28;80.49
26978;BME280;56314;48.088;11.642;2022-09-03T08:22:02;95330.00;;;16.33;82.71
26978;BME280;56314;48.088;11.642;2022-09-03T08:24:27;95311.69;;;16.48;81.28
26978;BME280;56314;48.088;11.642;2022-09-03T08:26:53;95319.88;;;16.63;80.44
26978;BME280;56314;48.088;11.642;2022-09-03T08:29:19;95313.53;;;16.82;81.34
26978;BME280;56314;48.088;11.642;2022-09-03T08:31:45;95314.13;;;17.02;80.45
26978;BME280;56314;48.088;11.642;2022-09-03T08:34:10;95321.16;;;17.20;77.80
26978;BME280;56314;48.088;11.642;2022-09-03T08:36:38;95319.69;;;17.34;76.50
26978;BME280;56314;48.088;11.642;2022-09-03T08:39:05;95325.69;;;17.44;76.84
26978;BME280;56314;48.088;11.642;2022-09-03T08:44:28;95311.78;;;17.75;74.68
26978;BME280;56314;48.088;11.642;2022-09-03T08:49:46;95317.44;;;18.38;71.12
26978;BME280;56314;48.088;11.642;2022-09-03T08:52:33;95308.88;;;18.68;70.99
26978;BME280;56314;48.088;11.642;2022-09-03T08:57:48;95308.47;;;19.82;67.00
26978;BME280;56314;48.088;11.642;2022-09-03T09:00:15;95308.66;;;20.04;66.10
26978;BME280;56314;48.088;11.642;2022-09-03T09:05:57;95300.19;;;21.28;61.07
26978;BME280;56314;48.088;11.642;2022-09-03T09:08:34;95289.38;;;22.45;56.86
26978;BME280;56314;48.088;11.642;2022-09-03T09:11:32;95282.97;;;23.85;52.07
26978;BME280;56314;48.088;11.642;2022-09-03T09:14:06;95279.03;;;24.62;49.71
26978;BME280;56314;48.088;11.642;2022-09-03T09:16:46;95273.19;;;24.98;48.46
26978;BME280;56314;48.088;11.642;2022-09-03T09:21:52;95271.59;;;24.64;49.75
26978;BME280;56314;48.088;11.642;2022-09-03T09:24:24;95283.22;;;24.17;49.76
26978;BME280;56314;48.088;11.642;2022-09-03T09:26:57;95290.09;;;23.58;51.23
26978;BME280;56314;48.088;11.642;2022-09-03T09:29:29;95275.22;;;23.42;52.55
26978;BME280;56314;48.088;11.642;2022-09-03T09:31:56;95271.00;;;23.81;52.28
26978;BME280;56314;48.088;11.642;2022-09-03T09:34:21;95273.69;;;23.88;50.80
26978;BME280;56314;48.088;11.642;2022-09-03T09:36:54;95274.53;;;24.08;49.79
26978;BME280;56314;48.088;11.642;2022-09-03T09:39:21;95268.28;;;24.62;49.84
26978;BME280;56314;48.088;11.642;2022-09-03T09:42:00;95262.06;;;24.95;48.29
26978;BME280;56314;48.088;11.642;2022-09-03T09:44:32;95263.38;;;25.24;47.15
26978;BME280;56314;48.088;11.642;2022-09-03T09:47:03;95260.81;;;25.43;46.66
26978;BME280;56314;48.088;11.642;2022-09-03T09:49:33;95256.56;;;25.21;46.32
26978;BME280;56314;48.088;11.642;2022-09-03T09:52:18;95259.53;;;25.07;45.73
26978;BME280;56314;48.088;11.642;2022-09-03T09:54:46;95253.34;;;24.99;45.38
26978;BME280;56314;48.088;11.642;2022-09-03T09:57:22;95270.78;;;25.42;45.64
26978;BME280;56314;48.088;11.642;2022-09-03T09:59:48;95260.38;;;25.53;44.68
26978;BME280;56314;48.088;11.642;2022-09-03T10:02:34;95257.41;;;25.22;46.36
26978;BME280;56314;48.088;11.642;2022-09-03T10:05:14;95259.78;;;24.98;46.02
26978;BME280;56314;48.088;11.642;2022-09-03T10:07:41;95260.03;;;24.83;46.49
26978;BME280;56314;48.088;11.642;2022-09-03T10:10:13;95257.75;;;24.80;46.50
26978;BME280;56314;48.088;11.642;2022-09-03T10:12:43;95261.66;;;24.84;46.89
26978;BME280;56314;48.088;11.642;2022-09-03T10:15:21;95261.41;;;25.06;46.43
26978;BME280;56314;48.088;11.642;2022-09-03T10:17:54;95266.53;;;25.08;45.06
26978;BME280;56314;48.088;11.642;2022-09-03T10:20:27;95260.78;;;25.04;44.59
26978;BME280;56314;48.088;11.642;2022-09-03T10:22:56;95260.19;;;24.88;44.82
26978;BME280;56314;48.088;11.642;2022-09-03T10:25:25;95263.75;;;24.76;45.17
26978;BME280;56314;48.088;11.642;2022-09-03T10:27:51;95269.13;;;24.76;46.62
26978;BME280;56314;48.088;11.642;2022-09-03T10:30:18;95269.88;;;24.96;45.98
26978;BME280;56314;48.088;11.642;2022-09-03T10:35:25;95265.94;;;25.05;45.89
26978;BME280;56314;48.088;11.642;2022-09-03T10:46:02;95268.94;;;24.50;47.15
26978;BME280;56314;48.088;11.642;2022-09-03T10:51:05;95243.50;;;24.80;47.12
26978;BME280;56314;48.088;11.642;2022-09-03T10:58:48;95244.34;;;25.64;43.71
26978;BME280;56314;48.088;11.642;2022-09-03T11:01:24;95239.81;;;25.65;43.99
26978;BME280;56314;48.088;11.642;2022-09-03T11:07:19;95236.59;;;25.81;43.47
26978;BME280;56314;48.088;11.642;2022-09-03T11:09:47;95232.19;;;26.63;42.04
26978;BME280;56314;48.088;11.642;2022-09-03T11:12:28;95227.84;;;27.18;40.76
26978;BME280;56314;48.088;11.642;2022-09-03T11:15:04;95221.78;;;27.04;39.78
26978;BME280;56314;48.088;11.642;2022-09-03T11:17:33;95230.16;;;26.96;40.46
26978;BME280;56314;48.088;11.642;2022-09-03T11:22:39;95219.09;;;26.67;42.20
26978;BME280;56314;48.088;11.642;2022-09-03T11:25:07;95222.28;;;26.38;40.84
26978;BME280;56314;48.088;11.642;2022-09-03T11:27:42;95217.16;;;26.30;41.22
26978;BME280;56314;48.088;11.642;2022-09-03T11:33:20;95208.78;;;26.82;41.45
26978;BME280;56314;48.088;11.642;2022-09-03T11:35:55;95211.28;;;26.58;40.70
26978;BME280;56314;48.088;11.642;2022-09-03T11:38:22;95212.31;;;26.20;40.84
26978;BME280;56314;48.088;11.642;2022-09-03T11:41:12;95204.31;;;26.07;41.48
26978;BME280;56314;48.088;11.642;2022-09-03T11:43:42;95201.47;;;26.02;43.13
26978;BME280;56314;48.088;11.642;2022-09-03T11:48:56;95213.06;;;25.45;42.01
26978;BME280;56314;48.088;11.642;2022-09-03T11:51:34;95208.50;;;25.45;41.97
26978;BME280;56314;48.088;11.642;2022-09-03T11:56:28;95198.97;;;26.69;40.75
26978;BME280;56314;48.088;11.642;2022-09-03T11:59:05;95198.34;;;26.67;40.64
26978;BME280;56314;48.088;11.642;2022-09-03T12:01:52;95194.69;;;26.62;39.80
26978;BME280;56314;48.088;11.642;2022-09-03T12:04:34;95190.66;;;26.71;40.08
26978;BME280;56314;48.088;11.642;2022-09-03T12:10:32;95189.19;;;26.94;38.54
26978;BME280;56314;48.088;11.642;2022-09-03T12:18:04;95183.63;;;27.80;38.68
26978;BME280;56314;48.088;11.642;2022-09-03T12:20:45;95185.31;;;28.17;38.23
26978;BME280;56314;48.088;11.642;2022-09-03T12:23:24;95175.47;;;28.10;35.26
26978;BME280;56314;48.088;11.642;2022-09-03T12:25:51;95176.75;;;28.32;35.98
26978;BME280;56314;48.088;11.642;2022-09-03T12:28:20;95167.22;;;28.29;38.20
26978;BME280;56314;48.088;11.642;2022-09-03T12:30:48;95169.81;;;28.36;34.34
26978;BME280;56314;48.088;11.642;2022-09-03T12:33:21;95175.47;;;28.10;35.70
26978;BME280;56314;48.088;11.642;2022-09-03T12:35:59;95165.97;;;28.32;37.76
26978;BME280;56314;48.088;11.642;2022-09-03T12:38:28;95171.34;;;28.20;35.83
26978;BME280;56314;48.088;11.642;2022-09-03T12:40:56;95155.28;;;28.25;35.60
26978;BME280;56314;48.088;11.642;2022-09-03T12:43:27;95161.38;;;28.44;37.39
26978;BME280;56314;48.088;11.642;2022-09-03T12:45:53;95158.91;;;28.19;35.74
26978;BME280;56314;48.088;11.642;2022-09-03T12:48:19;95163.34;;;27.89;37.30
26978;BME280;56314;48.088;11.642;2022-09-03T12:50:46;95171.91;;;27.98;35.47
26978;BME280;56314;48.088;11.642;2022-09-03T12:53:23;95166.84;;;27.78;36.99
26978;BME280;56314;48.088;11.642;2022-09-03T12:55:56;95162.41;;;27.95;37.38
26978;BME280;56314;48.088;11.642;2022-09-03T12:58:35;95167.94;;;27.89;37.75
26978;BME280;56314;48.088;11.642;2022-09-03T13:01:11;95153.63;;;28.00;36.31
26978;BME280;56314;48.088;11.642;2022-09-03T13:03:58;95142.72;;;28.07;36.41
26978;BME280;56314;48.088;11.642;2022-09-03T13:06:30;95147.50;;;27.93;36.16
26978;BME280;56314;48.088;11.642;2022-09-03T13:09:00;95137.53;;;27.81;36.03
26978;BME280;56314;48.088;11.642;2022-09-03T13:11:26;95144.44;;;27.65;35.39
26978;BME280;56314;48.088;11.642;2022-09-03T13:14:01;95137.38;;;27.53;36.77
26978;BME280;56314;48.088;11.642;2022-09-03T13:22:19;95141.94;;;27.22;37.44
26978;BME280;56314;48.088;11.642;2022-09-03T13:30:08;95153.81;;;27.32;40.01
26978;BME280;56314;48.088;11.642;2022-09-03T13:41:00;95156.94;;;27.17;38.75
26978;BME280;56314;48.088;11.642;2022-09-03T13:43:43;95166.66;;;26.88;40.65
26978;BME280;56314;48.088;11.642;2022-09-03T13:46:19;95158.72;;;26.56;40.66
26978;BME280;56314;48.088;11.642;2022-09-03T13:48:50;95153.91;;;26.21;41.96
26978;BME280;56314;48.088;11.642;2022-09-03T13:51:49;95158.13;;;25.66;41.34
26978;BME280;56314;48.088;11.642;2022-09-03T13:54:23;95150.03;;;25.41;43.74
26978;BME280;56314;48.088;11.642;2022-09-03T13:56:54;95155.34;;;25.15;44.04
26978;BME280;56314;48.088;11.642;2022-09-03T13:59:46;95167.06;;;24.89;45.02
26978;BME280;56314;48.088;11.642;2022-09-03T14:15:44;95179.63;;;23.89;48.38
26978;BME280;56314;48.088;11.642;2022-09-03T14:20:54;95188.06;;;23.52;48.73
26978;BME280;56314;48.088;11.642;2022-09-03T14:26:30;95194.22;;;23.26;51.87
26978;BME280;56314;48.088;11.642;2022-09-03T14:29:02;95202.59;;;23.10;51.19
26978;BME280;56314;48.088;11.642;2022-09-03T14:31:44;95234.47;;;22.98;52.91
26978;BME280;56314;48.088;11.642;2022-09-03T14:37:01;95296.13;;;21.69;58.19
26978;BME280;56314;48.088;11.642;2022-09-03T14:42:07;95349.38;;;19.66;68.95
26978;BME280;56314;48.088;11.642;2022-09-03T14:56:00;95381.25;;;16.24;94.71
26978;BME280;56314;48.088;11.642;2022-09-03T15:09:20;95399.97;;;16.04;100.00
26978;BME280;56314;48.088;11.642;2022-09-03T15:11:58;95388.81;;;15.92;100.00
26978;BME280;56314;48.088;11.642;2022-09-03T15:14:39;95381.22;;;15.97;100.00
26978;BME280;56314;48.088;11.642;2022-09-03T15:20:28;95386.16;;;15.92;100.00
26978;BME280;56314;48.088;11.642;2022-09-03T15:23:09;95382.94;;;15.89;100.00
26978;BME280;56314;48.088;11.642;2022-09-03T15:26:09;95393.41;;;15.90;100.00
26978;BME280;56314;48.088;11.642;2022-09-03T15:28:57;95386.19;;;15.64;100.00
26978;BME280;56314;48.088;11.642;2022-09-03T15:32:00;95388.34;;;15.51;100.00
26978;BME280;56314;48.088;11.642;2022-09-03T15:37:33;95404.56;;;15.20;100.00
26978;BME280;56314;48.088;11.642;2022-09-03T15:40:22;95394.84;;;15.11;100.00
26978;BME280;56314;48.088;11.642;2022-09-03T15:43:17;95388.88;;;15.08;100.00
26978;BME280;56314;48.088;11.642;2022-09-03T15:45:53;95401.28;;;14.98;100.00
26978;BME280;56314;48.088;11.642;2022-09-03T15:48:51;95398.13;;;14.95;100.00
26978;BME280;56314;48.088;11.642;2022-09-03T15:51:25;95392.69;;;14.96;100.00
26978;BME280;56314;48.088;11.642;2022-09-03T15:53:59;95392.97;;;14.93;100.00
26978;BME280;56314;48.088;11.642;2022-09-03T15:56:36;95396.31;;;14.95;100.00
26978;BME280;56314;48.088;11.642;2022-09-03T16:01:51;95402.84;;;15.01;100.00
26978;BME280;56314;48.088;11.642;2022-09-03T16:04:35;95400.44;;;15.07;100.00
26978;BME280;56314;48.088;11.642;2022-09-03T16:07:15;95406.84;;;15.05;100.00
26978;BME280;56314;48.088;11.642;2022-09-03T16:10:09;95398.88;;;15.15;100.00
26978;BME280;56314;48.088;11.642;2022-09-03T16:12:58;95396.56;;;15.30;100.00
26978;BME280;56314;48.088;11.642;2022-09-03T16:15:32;95382.75;;;15.36;100.00
26978;BME280;56314;48.088;11.642;2022-09-03T16:20:35;95369.38;;;15.55;100.00
26978;BME280;56314;48.088;11.642;2022-09-03T16:23:15;95358.72;;;15.65;100.00